createdAt,value
2023-05-20T04:54:34.565Z,11.6
2023-05-20T05:00:24.246Z,11.8
2023-05-20T05:06:14.777Z,11.6
2023-05-20T05:12:06.204Z,11.5
2023-05-20T05:17:56.279Z,11.6
2023-05-20T05:23:47.768Z,12
2023-05-20T05:29:45.460Z,12
2023-05-20T05:35:36.759Z,12
2023-05-20T05:41:29.297Z,12.3
2023-05-20T05:47:20.235Z,14.5
2023-05-20T05:53:10.890Z,13.2
2023-05-20T05:59:03.874Z,13.3
2023-05-20T06:05:09.823Z,12.9
2023-05-20T06:11:05.519Z,13.2
2023-05-20T06:17:02.725Z,13.5
2023-05-20T06:22:56.883Z,13.8
2023-05-20T06:28:57.467Z,14
2023-05-20T06:53:48.058Z,14.2
2023-05-20T07:12:09.528Z,14.4
2023-05-20T07:25:15.093Z,15.1
2023-05-20T07:37:40.911Z,15.3
2023-05-20T07:50:39.131Z,15.6
2023-05-20T07:56:42.895Z,15.8
2023-05-20T08:02:40.656Z,16.1
2023-05-20T08:14:57.181Z,16.4
2023-05-20T08:21:09.961Z,16.5
2023-05-20T08:40:26.790Z,17.2
2023-05-20T08:53:25.675Z,17.3
2023-05-20T08:59:41.219Z,17.1
2023-05-20T09:13:10.880Z,17.6
2023-05-20T10:13:26.342Z,19
2023-05-20T10:19:17.846Z,18.8
2023-05-20T10:25:12.445Z,18.9
2023-05-20T10:31:04.603Z,19
2023-05-20T10:36:58.732Z,19
2023-05-20T10:42:52.553Z,19
2023-05-20T10:48:49.822Z,18.9
2023-05-20T10:54:50.114Z,19
2023-05-20T11:00:43.446Z,18.8
2023-05-20T11:06:39.393Z,18.9
2023-05-20T11:12:31.575Z,18.8
2023-05-20T11:18:21.750Z,19
2023-05-20T11:24:13.756Z,19
2023-05-20T11:31:14.005Z,18.8
2023-05-20T11:37:07.809Z,19.3
2023-05-20T11:48:50.968Z,19.8
2023-05-20T11:57:03.055Z,19.8
2023-05-20T12:04:03.012Z,19.4
2023-05-20T12:09:55.217Z,19.5
2023-05-20T12:15:50.216Z,19.5
2023-05-20T12:21:42.347Z,19.6
2023-05-20T12:28:44.201Z,19.6
2023-05-20T12:34:35.828Z,19.5
2023-05-20T12:40:28.998Z,19.6
2023-05-20T12:50:59.788Z,19.7
2023-05-20T12:56:50.601Z,19.7
2023-05-20T13:02:44.474Z,19.8
2023-05-20T13:25:52.813Z,19.6
2023-05-20T13:41:29.265Z,19.7
2023-05-20T13:48:26.919Z,19.6
2023-05-20T13:54:16.483Z,19.7
2023-05-20T14:00:08.543Z,19.6
2023-05-20T14:06:01.920Z,19.6
2023-05-20T14:19:58.433Z,19.7
2023-05-20T14:26:56.995Z,19.5
2023-05-20T14:33:59.461Z,19.4
2023-05-20T14:39:49.922Z,19.4
2023-05-20T14:45:43.050Z,19.3
2023-05-20T14:52:44.099Z,19.2
2023-05-20T14:58:37.119Z,19.1
2023-05-20T15:04:28.607Z,19.3
2023-05-20T15:10:20.470Z,19.1
2023-05-20T15:16:13.386Z,19.2
2023-05-20T15:22:05.068Z,19.4
2023-05-20T15:27:57.256Z,19.2
2023-05-20T15:38:31.067Z,19.4
2023-05-20T15:44:21.109Z,19.4
2023-05-20T15:50:14.267Z,19
2023-05-20T15:56:08.380Z,19
2023-05-20T16:01:59.383Z,19.1
2023-05-20T16:07:51.806Z,19
2023-05-20T16:16:01.661Z,18.9
2023-05-20T16:21:50.398Z,18.9
2023-05-20T16:27:44.176Z,18.7
2023-05-20T16:33:36.928Z,18.8
2023-05-20T16:39:29.605Z,18.7
2023-05-20T16:45:22.971Z,18.8
2023-05-20T16:51:15.725Z,18.7
2023-05-20T16:57:08.470Z,18.8
2023-05-20T17:02:59.048Z,18.8
2023-05-20T17:08:52.337Z,18.9
2023-05-20T17:14:45.874Z,19.1
2023-05-20T17:20:38.790Z,18.9
2023-05-20T17:26:30.450Z,18.8
2023-05-20T17:32:21.958Z,18.8
2023-05-20T17:38:13.054Z,18.8
2023-05-20T17:46:25.026Z,18.8
2023-05-20T17:52:13.685Z,18.7
2023-05-20T17:58:07.766Z,18.7
2023-05-20T18:04:01.739Z,18.8
2023-05-20T18:09:58.930Z,18.7
2023-05-20T18:15:52.496Z,18.8
2023-05-20T18:21:53.105Z,18.8
2023-05-20T18:27:44.611Z,18.6
2023-05-20T18:33:37.035Z,18.6
2023-05-20T18:39:31.483Z,18.6
2023-05-20T18:45:28.922Z,18.5
2023-05-20T18:51:20.624Z,18.3
2023-05-20T18:57:23.905Z,18.2
2023-05-20T19:03:15.880Z,18.2
2023-05-20T19:09:07.827Z,18
2023-05-20T19:14:59.755Z,17.9
2023-05-20T19:20:52.643Z,17.9
2023-05-20T19:26:53.085Z,17.8
2023-05-20T19:32:48.467Z,17.7
2023-05-20T19:38:43.529Z,17.7
2023-05-20T19:44:40.741Z,17.6
2023-05-20T19:50:37.937Z,17.6
2023-05-20T19:56:35.671Z,17.6
2023-05-20T20:02:28.353Z,17.7
2023-05-20T20:08:25.047Z,17.4
2023-05-20T20:14:18.686Z,17.3
2023-05-20T20:20:11.949Z,17.1
2023-05-20T20:26:04.397Z,17
2023-05-20T20:32:01.499Z,16.7
2023-05-20T20:37:54.640Z,16.8
2023-05-20T20:43:48.257Z,16.8
2023-05-20T20:49:48.401Z,16.8
2023-05-20T20:55:43.717Z,16.6
2023-05-20T21:01:42.124Z,16.5
2023-05-20T21:07:34.938Z,16.3
2023-05-20T21:13:27.999Z,16.4
2023-05-20T21:19:23.882Z,16.3
2023-05-20T21:25:15.487Z,16.1
2023-05-20T21:31:08.333Z,16.1
2023-05-20T21:37:00.199Z,15.9
2023-05-20T21:42:52.075Z,15.9
2023-05-20T21:48:47.979Z,15.9
2023-05-20T21:54:46.221Z,15.8
2023-05-20T22:00:37.794Z,15.4
2023-05-20T22:06:32.800Z,15.6
2023-05-20T22:12:25.924Z,15.5
2023-05-20T22:18:18.586Z,15.3
2023-05-20T22:24:13.264Z,15.3
2023-05-20T22:30:10.130Z,15.3
2023-05-20T22:36:04.700Z,15.2
2023-05-20T22:42:01.022Z,15
2023-05-20T22:47:53.068Z,15
2023-05-20T22:53:45.346Z,15.2
2023-05-20T22:59:37.668Z,15
2023-05-20T23:05:30.110Z,15
2023-05-20T23:11:24.714Z,15
2023-05-20T23:17:16.506Z,14.8
2023-05-20T23:23:11.404Z,14.9
2023-05-20T23:29:16.715Z,15
2023-05-20T23:35:10.032Z,14.6
2023-05-20T23:41:04.492Z,14.6
2023-05-20T23:46:56.140Z,14.8
2023-05-20T23:52:48.145Z,14.7
2023-05-20T23:58:40.425Z,14.6
